sensor_id;sensor_type;location;lat;lon;timestamp;P1;durP1;ratioP1;P2;durP2;ratioP2
4248;SDS011;8404;48.752;12.922;2022-12-29T08:43:59;8.88;;;5.20;;
4248;SDS011;8404;48.752;12.922;2022-12-29T08:46:32;5.30;;;4.90;;
4248;SDS011;8404;48.752;12.922;2022-12-29T08:49:00;6.43;;;5.82;;
4248;SDS011;8404;48.752;12.922;2022-12-29T08:51:28;6.10;;;5.50;;
4248;SDS011;8404;48.752;12.922;2022-12-29T08:53:56;6.05;;;5.40;;
4248;SDS011;8404;48.752;12.922;2022-12-29T08:56:24;6.70;;;6.00;;
4248;SDS011;8404;48.752;12.922;2022-12-29T08:58:55;5.60;;;5.10;;
4248;SDS011;8404;48.752;12.922;2022-12-29T09:01:25;6.90;;;5.50;;
4248;SDS011;8404;48.752;12.922;2022-12-29T09:03:54;7.33;;;6.23;;
4248;SDS011;8404;48.752;12.922;2022-12-29T09:07:06;6.03;;;5.33;;
4248;SDS011;8404;48.752;12.922;2022-12-29T09:09:34;5.53;;;4.93;;
4248;SDS011;8404;48.752;12.922;2022-12-29T09:12:03;8.95;;;5.88;;
4248;SDS011;8404;48.752;12.922;2022-12-29T09:14:31;5.80;;;5.30;;
4248;SDS011;8404;48.752;12.922;2022-12-29T09:17:01;6.47;;;5.90;;
4248;SDS011;8404;48.752;12.922;2022-12-29T09:19:48;6.10;;;5.55;;
4248;SDS011;8404;48.752;12.922;2022-12-29T09:22:16;5.87;;;5.30;;
4248;SDS011;8404;48.752;12.922;2022-12-29T09:24:45;7.90;;;7.10;;
4248;SDS011;8404;48.752;12.922;2022-12-29T09:27:13;7.80;;;6.23;;
4248;SDS011;8404;48.752;12.922;2022-12-29T09:29:41;7.90;;;5.97;;
4248;SDS011;8404;48.752;12.922;2022-12-29T09:32:11;5.60;;;5.10;;
4248;SDS011;8404;48.752;12.922;2022-12-29T09:34:44;5.90;;;5.30;;
4248;SDS011;8404;48.752;12.922;2022-12-29T09:37:13;5.63;;;4.93;;
4248;SDS011;8404;48.752;12.922;2022-12-29T09:39:41;5.10;;;4.70;;
4248;SDS011;8404;48.752;12.922;2022-12-29T09:42:22;6.53;;;4.87;;
4248;SDS011;8404;48.752;12.922;2022-12-29T09:44:56;5.70;;;5.20;;
4248;SDS011;8404;48.752;12.922;2022-12-29T09:47:33;5.30;;;4.80;;
4248;SDS011;8404;48.752;12.922;2022-12-29T09:50:03;8.50;;;5.03;;
4248;SDS011;8404;48.752;12.922;2022-12-29T09:52:38;6.10;;;4.63;;
4248;SDS011;8404;48.752;12.922;2022-12-29T09:55:12;5.17;;;4.67;;
4248;SDS011;8404;48.752;12.922;2022-12-29T09:57:44;7.70;;;4.57;;
4248;SDS011;8404;48.752;12.922;2022-12-29T10:00:16;5.00;;;4.57;;
4248;SDS011;8404;48.752;12.922;2022-12-29T10:02:48;5.53;;;4.97;;
4248;SDS011;8404;48.752;12.922;2022-12-29T10:05:23;5.90;;;5.37;;
4248;SDS011;8404;48.752;12.922;2022-12-29T10:08:01;5.30;;;4.87;;
4248;SDS011;8404;48.752;12.922;2022-12-29T10:10:50;5.93;;;5.23;;
4248;SDS011;8404;48.752;12.922;2022-12-29T10:13:26;5.33;;;4.83;;
4248;SDS011;8404;48.752;12.922;2022-12-29T10:16:02;6.13;;;5.53;;
4248;SDS011;8404;48.752;12.922;2022-12-29T10:21:47;5.80;;;5.30;;
4248;SDS011;8404;48.752;12.922;2022-12-29T10:24:25;6.20;;;5.67;;
4248;SDS011;8404;48.752;12.922;2022-12-29T10:26:55;7.17;;;5.53;;
4248;SDS011;8404;48.752;12.922;2022-12-29T10:29:26;5.27;;;4.87;;
4248;SDS011;8404;48.752;12.922;2022-12-29T10:32:00;5.60;;;5.10;;
4248;SDS011;8404;48.752;12.922;2022-12-29T10:34:34;5.10;;;4.70;;
4248;SDS011;8404;48.752;12.922;2022-12-29T10:37:05;5.10;;;4.63;;
4248;SDS011;8404;48.752;12.922;2022-12-29T10:39:43;5.20;;;4.70;;
4248;SDS011;8404;48.752;12.922;2022-12-29T10:42:19;5.30;;;4.83;;
4248;SDS011;8404;48.752;12.922;2022-12-29T10:44:53;7.37;;;5.10;;
4248;SDS011;8404;48.752;12.922;2022-12-29T10:47:22;5.17;;;4.77;;
4248;SDS011;8404;48.752;12.922;2022-12-29T10:49:55;5.63;;;5.23;;
4248;SDS011;8404;48.752;12.922;2022-12-29T10:52:24;5.73;;;5.23;;
4248;SDS011;8404;48.752;12.922;2022-12-29T10:54:56;5.73;;;5.20;;
4248;SDS011;8404;48.752;12.922;2022-12-29T10:57:28;4.97;;;4.53;;
4248;SDS011;8404;48.752;12.922;2022-12-29T11:00:00;6.77;;;5.20;;
4248;SDS011;8404;48.752;12.922;2022-12-29T11:02:36;5.30;;;4.90;;
4248;SDS011;8404;48.752;12.922;2022-12-29T11:05:18;4.30;;;4.00;;
4248;SDS011;8404;48.752;12.922;2022-12-29T11:07:50;5.17;;;4.67;;
4248;SDS011;8404;48.752;12.922;2022-12-29T11:10:28;5.47;;;4.87;;
4248;SDS011;8404;48.752;12.922;2022-12-29T11:13:02;5.47;;;4.97;;
4248;SDS011;8404;48.752;12.922;2022-12-29T11:15:37;7.00;;;5.20;;
4248;SDS011;8404;48.752;12.922;2022-12-29T11:18:21;5.50;;;5.00;;
4248;SDS011;8404;48.752;12.922;2022-12-29T11:20:52;5.70;;;5.10;;
4248;SDS011;8404;48.752;12.922;2022-12-29T11:23:24;5.20;;;4.80;;
4248;SDS011;8404;48.752;12.922;2022-12-29T11:28:44;6.30;;;5.70;;
4248;SDS011;8404;48.752;12.922;2022-12-29T11:31:17;7.00;;;5.93;;
4248;SDS011;8404;48.752;12.922;2022-12-29T11:33:49;7.87;;;5.70;;
4248;SDS011;8404;48.752;12.922;2022-12-29T11:36:19;7.67;;;6.97;;
4248;SDS011;8404;48.752;12.922;2022-12-29T11:38:51;7.20;;;5.07;;
4248;SDS011;8404;48.752;12.922;2022-12-29T11:41:22;5.70;;;5.07;;
4248;SDS011;8404;48.752;12.922;2022-12-29T11:43:52;4.50;;;4.20;;
4248;SDS011;8404;48.752;12.922;2022-12-29T11:46:24;5.33;;;4.93;;
4248;SDS011;8404;48.752;12.922;2022-12-29T11:49:19;5.37;;;4.83;;
4248;SDS011;8404;48.752;12.922;2022-12-29T11:51:51;5.77;;;5.33;;
4248;SDS011;8404;48.752;12.922;2022-12-29T11:54:23;5.80;;;5.30;;
4248;SDS011;8404;48.752;12.922;2022-12-29T11:56:56;5.83;;;5.33;;
4248;SDS011;8404;48.752;12.922;2022-12-29T11:59:40;6.07;;;5.47;;
4248;SDS011;8404;48.752;12.922;2022-12-29T12:02:18;6.53;;;5.93;;
4248;SDS011;8404;48.752;12.922;2022-12-29T12:05:12;12.97;;;11.63;;
4248;SDS011;8404;48.752;12.922;2022-12-29T12:07:46;6.83;;;6.20;;
4248;SDS011;8404;48.752;12.922;2022-12-29T12:10:19;7.53;;;6.50;;
4248;SDS011;8404;48.752;12.922;2022-12-29T12:12:53;6.57;;;5.83;;
4248;SDS011;8404;48.752;12.922;2022-12-29T12:15:27;5.90;;;5.40;;
4248;SDS011;8404;48.752;12.922;2022-12-29T12:18:11;6.73;;;6.00;;
4248;SDS011;8404;48.752;12.922;2022-12-29T12:20:47;5.67;;;5.17;;
4248;SDS011;8404;48.752;12.922;2022-12-29T12:23:27;6.30;;;5.70;;
4248;SDS011;8404;48.752;12.922;2022-12-29T12:26:07;5.57;;;5.07;;
4248;SDS011;8404;48.752;12.922;2022-12-29T12:28:41;5.97;;;5.47;;
4248;SDS011;8404;48.752;12.922;2022-12-29T12:31:17;7.00;;;5.33;;
4248;SDS011;8404;48.752;12.922;2022-12-29T12:33:53;6.63;;;6.03;;
4248;SDS011;8404;48.752;12.922;2022-12-29T12:36:33;5.60;;;5.10;;
4248;SDS011;8404;48.752;12.922;2022-12-29T12:39:21;6.53;;;5.60;;
4248;SDS011;8404;48.752;12.922;2022-12-29T12:41:57;6.20;;;5.57;;
4248;SDS011;8404;48.752;12.922;2022-12-29T12:44:36;6.80;;;6.03;;
4248;SDS011;8404;48.752;12.922;2022-12-29T12:47:13;6.03;;;5.37;;
4248;SDS011;8404;48.752;12.922;2022-12-29T12:50:15;6.27;;;5.67;;
4248;SDS011;8404;48.752;12.922;2022-12-29T12:53:05;6.80;;;6.10;;
4248;SDS011;8404;48.752;12.922;2022-12-29T12:55:55;6.20;;;5.70;;
4248;SDS011;8404;48.752;12.922;2022-12-29T12:58:32;6.37;;;5.70;;
4248;SDS011;8404;48.752;12.922;2022-12-29T13:01:11;6.93;;;6.23;;
4248;SDS011;8404;48.752;12.922;2022-12-29T13:03:59;7.13;;;6.53;;
4248;SDS011;8404;48.752;12.922;2022-12-29T13:06:41;9.90;;;6.70;;
4248;SDS011;8404;48.752;12.922;2022-12-29T13:09:22;9.37;;;6.90;;
4248;SDS011;8404;48.752;12.922;2022-12-29T13:12:05;6.50;;;5.90;;
4248;SDS011;8404;48.752;12.922;2022-12-29T13:14:47;6.10;;;5.20;;
4248;SDS011;8404;48.752;12.922;2022-12-29T13:17:25;5.90;;;5.30;;
4248;SDS011;8404;48.752;12.922;2022-12-29T13:20:02;6.37;;;5.87;;
4248;SDS011;8404;48.752;12.922;2022-12-29T13:22:38;6.63;;;5.90;;
4248;SDS011;8404;48.752;12.922;2022-12-29T13:25:21;5.50;;;5.00;;
4248;SDS011;8404;48.752;12.922;2022-12-29T13:27:59;5.97;;;5.47;;
4248;SDS011;8404;48.752;12.922;2022-12-29T13:30:33;6.40;;;5.80;;
4248;SDS011;8404;48.752;12.922;2022-12-29T13:33:06;5.80;;;5.30;;
4248;SDS011;8404;48.752;12.922;2022-12-29T13:35:51;5.60;;;5.10;;
4248;SDS011;8404;48.752;12.922;2022-12-29T13:38:28;5.90;;;5.40;;
4248;SDS011;8404;48.752;12.922;2022-12-29T13:43:43;5.13;;;4.73;;
4248;SDS011;8404;48.752;12.922;2022-12-29T13:46:15;5.67;;;5.17;;
4248;SDS011;8404;48.752;12.922;2022-12-29T13:48:50;6.47;;;5.53;;
4248;SDS011;8404;48.752;12.922;2022-12-29T13:51:21;5.60;;;5.00;;
4248;SDS011;8404;48.752;12.922;2022-12-29T13:53:56;5.17;;;4.77;;
4248;SDS011;8404;48.752;12.922;2022-12-29T13:56:34;6.03;;;5.50;;
4248;SDS011;8404;48.752;12.922;2022-12-29T13:59:12;4.97;;;4.67;;
4248;SDS011;8404;48.752;12.922;2022-12-29T14:01:47;6.80;;;5.00;;
4248;SDS011;8404;48.752;12.922;2022-12-29T14:04:22;6.57;;;5.97;;
4248;SDS011;8404;48.752;12.922;2022-12-29T14:06:58;6.33;;;5.83;;
4248;SDS011;8404;48.752;12.922;2022-12-29T14:09:38;6.40;;;5.80;;
4248;SDS011;8404;48.752;12.922;2022-12-29T14:12:32;6.03;;;5.53;;
4248;SDS011;8404;48.752;12.922;2022-12-29T14:15:21;6.23;;;5.63;;
4248;SDS011;8404;48.752;12.922;2022-12-29T14:18:03;6.60;;;6.00;;
4248;SDS011;8404;48.752;12.922;2022-12-29T14:20:38;6.17;;;5.67;;
4248;SDS011;8404;48.752;12.922;2022-12-29T14:23:25;6.93;;;5.37;;
4248;SDS011;8404;48.752;12.922;2022-12-29T14:25:57;5.20;;;4.80;;
4248;SDS011;8404;48.752;12.922;2022-12-29T14:28:38;6.60;;;5.97;;
4248;SDS011;8404;48.752;12.922;2022-12-29T14:36:56;5.40;;;4.90;;
4248;SDS011;8404;48.752;12.922;2022-12-29T14:42:13;5.27;;;4.83;;
4248;SDS011;8404;48.752;12.922;2022-12-29T14:44:50;5.87;;;5.37;;
4248;SDS011;8404;48.752;12.922;2022-12-29T14:47:22;6.17;;;5.57;;
4248;SDS011;8404;48.752;12.922;2022-12-29T14:49:56;6.03;;;5.50;;
4248;SDS011;8404;48.752;12.922;2022-12-29T14:52:35;6.20;;;5.43;;
4248;SDS011;8404;48.752;12.922;2022-12-29T14:55:36;10.50;;;6.17;;
4248;SDS011;8404;48.752;12.922;2022-12-29T14:58:11;6.10;;;5.47;;
4248;SDS011;8404;48.752;12.922;2022-12-29T15:00:46;5.90;;;5.17;;
4248;SDS011;8404;48.752;12.922;2022-12-29T15:03:19;6.30;;;5.50;;
4248;SDS011;8404;48.752;12.922;2022-12-29T15:05:56;5.40;;;4.90;;
4248;SDS011;8404;48.752;12.922;2022-12-29T15:08:39;5.93;;;5.40;;
4248;SDS011;8404;48.752;12.922;2022-12-29T15:11:13;6.23;;;5.63;;
4248;SDS011;8404;48.752;12.922;2022-12-29T15:13:43;5.70;;;5.20;;
4248;SDS011;8404;48.752;12.922;2022-12-29T15:16:20;5.03;;;4.63;;
4248;SDS011;8404;48.752;12.922;2022-12-29T15:18:51;5.50;;;5.00;;
4248;SDS011;8404;48.752;12.922;2022-12-29T15:21:21;7.30;;;4.80;;
4248;SDS011;8404;48.752;12.922;2022-12-29T15:23:52;5.20;;;4.80;;
4248;SDS011;8404;48.752;12.922;2022-12-29T15:26:21;5.77;;;5.10;;
4248;SDS011;8404;48.752;12.922;2022-12-29T15:28:50;5.23;;;4.73;;
4248;SDS011;8404;48.752;12.922;2022-12-29T15:31:21;5.63;;;5.13;;
4248;SDS011;8404;48.752;12.922;2022-12-29T15:34:03;5.87;;;5.30;;
4248;SDS011;8404;48.752;12.922;2022-12-29T15:36:40;6.20;;;5.60;;
4248;SDS011;8404;48.752;12.922;2022-12-29T15:39:17;5.97;;;5.43;;
4248;SDS011;8404;48.752;12.922;2022-12-29T15:41:46;6.40;;;5.23;;
4248;SDS011;8404;48.752;12.922;2022-12-29T15:44:28;6.60;;;5.67;;
4248;SDS011;8404;48.752;12.922;2022-12-29T15:47:01;7.07;;;5.93;;
4248;SDS011;8404;48.752;12.922;2022-12-29T15:49:32;7.37;;;6.30;;
4248;SDS011;8404;48.752;12.922;2022-12-29T15:52:00;7.07;;;6.37;;
4248;SDS011;8404;48.752;12.922;2022-12-29T15:54:33;6.50;;;5.80;;
4248;SDS011;8404;48.752;12.922;2022-12-29T15:57:01;7.00;;;6.30;;
4248;SDS011;8404;48.752;12.922;2022-12-29T15:59:30;6.47;;;5.80;;
4248;SDS011;8404;48.752;12.922;2022-12-29T16:02:00;7.07;;;6.37;;
4248;SDS011;8404;48.752;12.922;2022-12-29T16:04:38;9.63;;;6.33;;
4248;SDS011;8404;48.752;12.922;2022-12-29T16:07:28;6.67;;;6.03;;
4248;SDS011;8404;48.752;12.922;2022-12-29T16:10:21;6.27;;;5.67;;
4248;SDS011;8404;48.752;12.922;2022-12-29T16:12:53;7.17;;;6.43;;
4248;SDS011;8404;48.752;12.922;2022-12-29T16:15:21;7.43;;;6.33;;
4248;SDS011;8404;48.752;12.922;2022-12-29T16:17:49;6.90;;;6.20;;
4248;SDS011;8404;48.752;12.922;2022-12-29T16:20:22;8.07;;;7.27;;
4248;SDS011;8404;48.752;12.922;2022-12-29T16:22:55;9.53;;;7.53;;
4248;SDS011;8404;48.752;12.922;2022-12-29T16:25:27;9.30;;;7.43;;
4248;SDS011;8404;48.752;12.922;2022-12-29T16:27:58;8.40;;;7.50;;
4248;SDS011;8404;48.752;12.922;2022-12-29T16:30:27;10.60;;;6.90;;
4248;SDS011;8404;48.752;12.922;2022-12-29T16:33:00;6.73;;;6.10;;
4248;SDS011;8404;48.752;12.922;2022-12-29T16:35:38;9.10;;;7.60;;
4248;SDS011;8404;48.752;12.922;2022-12-29T16:38:12;9.40;;;7.30;;
4248;SDS011;8404;48.752;12.922;2022-12-29T16:40:51;9.47;;;7.77;;
4248;SDS011;8404;48.752;12.922;2022-12-29T16:43:21;8.00;;;7.20;;
4248;SDS011;8404;48.752;12.922;2022-12-29T16:48:46;8.50;;;7.53;;
4248;SDS011;8404;48.752;12.922;2022-12-29T16:51:18;7.33;;;6.63;;
4248;SDS011;8404;48.752;12.922;2022-12-29T16:53:56;8.93;;;7.33;;
4248;SDS011;8404;48.752;12.922;2022-12-29T16:56:25;8.70;;;7.37;;
4248;SDS011;8404;48.752;12.922;2022-12-29T16:58:58;7.70;;;6.93;;
4248;SDS011;8404;48.752;12.922;2022-12-29T17:01:29;8.53;;;7.00;;
4248;SDS011;8404;48.752;12.922;2022-12-29T17:03:59;8.60;;;7.07;;
4248;SDS011;8404;48.752;12.922;2022-12-29T17:06:33;9.20;;;6.80;;
4248;SDS011;8404;48.752;12.922;2022-12-29T17:09:02;8.80;;;7.23;;
4248;SDS011;8404;48.752;12.922;2022-12-29T17:11:40;8.20;;;7.20;;
4248;SDS011;8404;48.752;12.922;2022-12-29T17:14:37;7.97;;;6.93;;
4248;SDS011;8404;48.752;12.922;2022-12-29T17:17:11;7.53;;;6.70;;
4248;SDS011;8404;48.752;12.922;2022-12-29T17:19:43;10.30;;;7.80;;
4248;SDS011;8404;48.752;12.922;2022-12-29T17:22:16;8.10;;;7.30;;
4248;SDS011;8404;48.752;12.922;2022-12-29T17:24:46;8.80;;;7.90;;
4248;SDS011;8404;48.752;12.922;2022-12-29T17:27:19;8.53;;;7.30;;
4248;SDS011;8404;48.752;12.922;2022-12-29T17:29:50;8.37;;;7.53;;
4248;SDS011;8404;48.752;12.922;2022-12-29T17:32:22;10.60;;;7.63;;
4248;SDS011;8404;48.752;12.922;2022-12-29T17:34:50;8.60;;;6.90;;
4248;SDS011;8404;48.752;12.922;2022-12-29T17:37:25;9.37;;;6.83;;
4248;SDS011;8404;48.752;12.922;2022-12-29T17:39:59;12.37;;;8.17;;
4248;SDS011;8404;48.752;12.922;2022-12-29T17:42:29;7.60;;;6.90;;
4248;SDS011;8404;48.752;12.922;2022-12-29T17:44:58;11.63;;;8.50;;
4248;SDS011;8404;48.752;12.922;2022-12-29T17:47:27;8.47;;;7.50;;
4248;SDS011;8404;48.752;12.922;2022-12-29T17:49:55;8.70;;;7.80;;
4248;SDS011;8404;48.752;12.922;2022-12-29T17:52:25;9.13;;;8.07;;
4248;SDS011;8404;48.752;12.922;2022-12-29T17:54:53;14.43;;;9.33;;
4248;SDS011;8404;48.752;12.922;2022-12-29T17:57:21;13.30;;;9.60;;
4248;SDS011;8404;48.752;12.922;2022-12-29T17:59:49;9.70;;;8.73;;
4248;SDS011;8404;48.752;12.922;2022-12-29T18:02:27;10.60;;;9.10;;
4248;SDS011;8404;48.752;12.922;2022-12-29T18:04:57;10.93;;;8.87;;
4248;SDS011;8404;48.752;12.922;2022-12-29T18:07:27;11.50;;;9.70;;
4248;SDS011;8404;48.752;12.922;2022-12-29T18:10:01;11.17;;;9.10;;
4248;SDS011;8404;48.752;12.922;2022-12-29T18:12:32;11.03;;;9.07;;
4248;SDS011;8404;48.752;12.922;2022-12-29T18:15:15;12.47;;;10.00;;
4248;SDS011;8404;48.752;12.922;2022-12-29T18:17:46;10.73;;;9.73;;
4248;SDS011;8404;48.752;12.922;2022-12-29T18:20:14;10.93;;;8.80;;
4248;SDS011;8404;48.752;12.922;2022-12-29T18:22:44;9.00;;;8.13;;
4248;SDS011;8404;48.752;12.922;2022-12-29T18:25:17;11.83;;;9.03;;
4248;SDS011;8404;48.752;12.922;2022-12-29T18:27:49;10.00;;;8.80;;
4248;SDS011;8404;48.752;12.922;2022-12-29T18:30:17;9.00;;;7.53;;
4248;SDS011;8404;48.752;12.922;2022-12-29T18:32:45;10.07;;;8.97;;
4248;SDS011;8404;48.752;12.922;2022-12-29T18:35:15;11.00;;;9.00;;
4248;SDS011;8404;48.752;12.922;2022-12-29T18:37:46;10.83;;;9.43;;
4248;SDS011;8404;48.752;12.922;2022-12-29T18:40:14;11.47;;;9.40;;
4248;SDS011;8404;48.752;12.922;2022-12-29T18:42:44;11.10;;;9.20;;
4248;SDS011;8404;48.752;12.922;2022-12-29T18:45:16;12.00;;;9.67;;
4248;SDS011;8404;48.752;12.922;2022-12-29T18:47:46;10.57;;;8.87;;
4248;SDS011;8404;48.752;12.922;2022-12-29T18:50:15;11.23;;;9.13;;
4248;SDS011;8404;48.752;12.922;2022-12-29T18:52:44;10.00;;;9.00;;
4248;SDS011;8404;48.752;12.922;2022-12-29T18:55:14;9.03;;;8.13;;
4248;SDS011;8404;48.752;12.922;2022-12-29T18:57:44;10.57;;;9.40;;
4248;SDS011;8404;48.752;12.922;2022-12-29T19:00:13;10.87;;;9.17;;
4248;SDS011;8404;48.752;12.922;2022-12-29T19:02:42;10.47;;;9.10;;
4248;SDS011;8404;48.752;12.922;2022-12-29T19:05:20;9.90;;;8.50;;
4248;SDS011;8404;48.752;12.922;2022-12-29T19:07:50;14.77;;;9.93;;
4248;SDS011;8404;48.752;12.922;2022-12-29T19:10:20;11.40;;;9.43;;
4248;SDS011;8404;48.752;12.922;2022-12-29T19:12:50;10.00;;;8.77;;
4248;SDS011;8404;48.752;12.922;2022-12-29T19:15:19;12.17;;;9.23;;
4248;SDS011;8404;48.752;12.922;2022-12-29T19:17:50;16.50;;;12.40;;
4248;SDS011;8404;48.752;12.922;2022-12-29T19:20:40;12.50;;;9.97;;
4248;SDS011;8404;48.752;12.922;2022-12-29T19:23:10;11.13;;;9.40;;
4248;SDS011;8404;48.752;12.922;2022-12-29T19:25:41;10.23;;;8.90;;
4248;SDS011;8404;48.752;12.922;2022-12-29T19:28:12;11.60;;;10.17;;
4248;SDS011;8404;48.752;12.922;2022-12-29T19:30:45;14.20;;;10.83;;
4248;SDS011;8404;48.752;12.922;2022-12-29T19:33:18;10.73;;;9.57;;
4248;SDS011;8404;48.752;12.922;2022-12-29T19:35:47;13.10;;;10.70;;
4248;SDS011;8404;48.752;12.922;2022-12-29T19:38:16;10.70;;;9.60;;
4248;SDS011;8404;48.752;12.922;2022-12-29T19:40:46;10.47;;;9.23;;
4248;SDS011;8404;48.752;12.922;2022-12-29T19:43:16;10.10;;;9.20;;
4248;SDS011;8404;48.752;12.922;2022-12-29T19:45:44;10.70;;;9.13;;
4248;SDS011;8404;48.752;12.922;2022-12-29T19:48:13;10.53;;;8.40;;
4248;SDS011;8404;48.752;12.922;2022-12-29T19:50:43;10.30;;;7.83;;
4248;SDS011;8404;48.752;12.922;2022-12-29T19:53:11;10.03;;;8.23;;
4248;SDS011;8404;48.752;12.922;2022-12-29T19:55:40;10.37;;;8.60;;
4248;SDS011;8404;48.752;12.922;2022-12-29T19:58:11;12.40;;;9.47;;
4248;SDS011;8404;48.752;12.922;2022-12-29T20:00:40;14.37;;;9.77;;
4248;SDS011;8404;48.752;12.922;2022-12-29T20:03:09;11.67;;;9.90;;
4248;SDS011;8404;48.752;12.922;2022-12-29T20:05:38;15.10;;;10.30;;
4248;SDS011;8404;48.752;12.922;2022-12-29T20:08:06;11.00;;;9.77;;
4248;SDS011;8404;48.752;12.922;2022-12-29T20:10:34;13.83;;;10.40;;
4248;SDS011;8404;48.752;12.922;2022-12-29T20:13:02;11.43;;;9.30;;
4248;SDS011;8404;48.752;12.922;2022-12-29T20:15:32;12.60;;;9.57;;
4248;SDS011;8404;48.752;12.922;2022-12-29T20:18:00;11.90;;;9.53;;
4248;SDS011;8404;48.752;12.922;2022-12-29T20:20:39;11.50;;;10.03;;
4248;SDS011;8404;48.752;12.922;2022-12-29T20:23:07;9.83;;;8.80;;
4248;SDS011;8404;48.752;12.922;2022-12-29T20:25:35;10.60;;;9.50;;
4248;SDS011;8404;48.752;12.922;2022-12-29T20:28:12;13.13;;;9.57;;
4248;SDS011;8404;48.752;12.922;2022-12-29T20:30:43;10.13;;;8.73;;
4248;SDS011;8404;48.752;12.922;2022-12-29T20:33:11;13.20;;;10.10;;
4248;SDS011;8404;48.752;12.922;2022-12-29T20:35:39;13.00;;;9.87;;
4248;SDS011;8404;48.752;12.922;2022-12-29T20:38:07;12.20;;;8.77;;
4248;SDS011;8404;48.752;12.922;2022-12-29T20:40:35;10.33;;;8.93;;
4248;SDS011;8404;48.752;12.922;2022-12-29T20:43:12;9.67;;;8.40;;
4248;SDS011;8404;48.752;12.922;2022-12-29T20:45:41;12.23;;;9.00;;
4248;SDS011;8404;48.752;12.922;2022-12-29T20:48:10;9.40;;;8.23;;
4248;SDS011;8404;48.752;12.922;2022-12-29T20:50:38;9.43;;;8.43;;
4248;SDS011;8404;48.752;12.922;2022-12-29T20:53:06;10.10;;;9.10;;
4248;SDS011;8404;48.752;12.922;2022-12-29T20:55:34;11.15;;;9.00;;
4248;SDS011;8404;48.752;12.922;2022-12-29T20:58:06;10.93;;;9.83;;
4248;SDS011;8404;48.752;12.922;2022-12-29T21:00:51;12.67;;;10.30;;
4248;SDS011;8404;48.752;12.922;2022-12-29T21:03:21;13.00;;;10.30;;
4248;SDS011;8404;48.752;12.922;2022-12-29T21:05:50;13.65;;;10.23;;
4248;SDS011;8404;48.752;12.922;2022-12-29T21:08:20;12.82;;;10.25;;
4248;SDS011;8404;48.752;12.922;2022-12-29T21:10:50;11.90;;;9.40;;
4248;SDS011;8404;48.752;12.922;2022-12-29T21:13:18;10.80;;;9.70;;
4248;SDS011;8404;48.752;12.922;2022-12-29T21:15:46;12.05;;;10.23;;
4248;SDS011;8404;48.752;12.922;2022-12-29T21:18:15;13.48;;;10.27;;
4248;SDS011;8404;48.752;12.922;2022-12-29T21:20:44;10.67;;;9.23;;
4248;SDS011;8404;48.752;12.922;2022-12-29T21:23:21;13.30;;;10.10;;
4248;SDS011;8404;48.752;12.922;2022-12-29T21:25:49;12.60;;;10.40;;
4248;SDS011;8404;48.752;12.922;2022-12-29T21:28:18;13.85;;;10.63;;
4248;SDS011;8404;48.752;12.922;2022-12-29T21:30:47;15.05;;;11.02;;
4248;SDS011;8404;48.752;12.922;2022-12-29T21:33:17;13.18;;;10.15;;
4248;SDS011;8404;48.752;12.922;2022-12-29T21:35:47;12.40;;;11.10;;
4248;SDS011;8404;48.752;12.922;2022-12-29T21:38:15;12.48;;;9.95;;
4248;SDS011;8404;48.752;12.922;2022-12-29T21:40:43;11.73;;;9.97;;
4248;SDS011;8404;48.752;12.922;2022-12-29T21:43:11;12.97;;;9.90;;
4248;SDS011;8404;48.752;12.922;2022-12-29T21:45:39;11.68;;;9.90;;
4248;SDS011;8404;48.752;12.922;2022-12-29T21:48:06;11.17;;;8.93;;
4248;SDS011;8404;48.752;12.922;2022-12-29T21:50:52;11.85;;;9.32;;
4248;SDS011;8404;48.752;12.922;2022-12-29T21:53:39;11.93;;;9.70;;
4248;SDS011;8404;48.752;12.922;2022-12-29T21:56:10;11.53;;;9.40;;
4248;SDS011;8404;48.752;12.922;2022-12-29T21:58:40;13.20;;;10.07;;
4248;SDS011;8404;48.752;12.922;2022-12-29T22:01:27;10.10;;;9.00;;
4248;SDS011;8404;48.752;12.922;2022-12-29T22:04:15;13.93;;;9.98;;
4248;SDS011;8404;48.752;12.922;2022-12-29T22:07:04;10.65;;;9.55;;
4248;SDS011;8404;48.752;12.922;2022-12-29T22:09:51;13.03;;;10.27;;
4248;SDS011;8404;48.752;12.922;2022-12-29T22:12:36;11.60;;;8.83;;
4248;SDS011;8404;48.752;12.922;2022-12-29T22:15:22;9.40;;;8.10;;
4248;SDS011;8404;48.752;12.922;2022-12-29T22:17:51;11.17;;;8.90;;
4248;SDS011;8404;48.752;12.922;2022-12-29T22:20:21;12.03;;;9.03;;
4248;SDS011;8404;48.752;12.922;2022-12-29T22:22:52;11.13;;;8.67;;
4248;SDS011;8404;48.752;12.922;2022-12-29T22:25:21;12.50;;;9.73;;
4248;SDS011;8404;48.752;12.922;2022-12-29T22:27:49;10.43;;;8.75;;
4248;SDS011;8404;48.752;12.922;2022-12-29T22:30:24;10.95;;;8.90;;
4248;SDS011;8404;48.752;12.922;2022-12-29T22:32:52;10.57;;;8.15;;
4248;SDS011;8404;48.752;12.922;2022-12-29T22:35:21;13.43;;;9.48;;
4248;SDS011;8404;48.752;12.922;2022-12-29T22:37:50;9.87;;;8.87;;
4248;SDS011;8404;48.752;12.922;2022-12-29T22:40:19;12.07;;;9.33;;
4248;SDS011;8404;48.752;12.922;2022-12-29T22:42:47;9.80;;;8.80;;
4248;SDS011;8404;48.752;12.922;2022-12-29T22:45:15;8.87;;;7.97;;
4248;SDS011;8404;48.752;12.922;2022-12-29T22:47:43;12.10;;;9.67;;
4248;SDS011;8404;48.752;12.922;2022-12-29T22:50:11;9.98;;;8.98;;
4248;SDS011;8404;48.752;12.922;2022-12-29T22:52:39;10.73;;;8.63;;
4248;SDS011;8404;48.752;12.922;2022-12-29T22:55:07;11.20;;;8.97;;
4248;SDS011;8404;48.752;12.922;2022-12-29T22:57:37;9.70;;;8.80;;
4248;SDS011;8404;48.752;12.922;2022-12-29T23:00:05;10.93;;;8.50;;
4248;SDS011;8404;48.752;12.922;2022-12-29T23:02:36;9.57;;;7.67;;
4248;SDS011;8404;48.752;12.922;2022-12-29T23:05:04;9.70;;;8.60;;
4248;SDS011;8404;48.752;12.922;2022-12-29T23:07:33;9.70;;;8.70;;
4248;SDS011;8404;48.752;12.922;2022-12-29T23:10:01;10.10;;;8.60;;
4248;SDS011;8404;48.752;12.922;2022-12-29T23:12:30;8.98;;;8.18;;
4248;SDS011;8404;48.752;12.922;2022-12-29T23:15:00;10.00;;;8.87;;
4248;SDS011;8404;48.752;12.922;2022-12-29T23:17:28;10.20;;;8.30;;
4248;SDS011;8404;48.752;12.922;2022-12-29T23:19:56;10.20;;;8.80;;
4248;SDS011;8404;48.752;12.922;2022-12-29T23:22:24;10.97;;;8.50;;
4248;SDS011;8404;48.752;12.922;2022-12-29T23:24:52;9.10;;;8.20;;
4248;SDS011;8404;48.752;12.922;2022-12-29T23:27:20;9.50;;;8.57;;
4248;SDS011;8404;48.752;12.922;2022-12-29T23:29:48;9.10;;;8.20;;
4248;SDS011;8404;48.752;12.922;2022-12-29T23:32:17;11.93;;;8.80;;
4248;SDS011;8404;48.752;12.922;2022-12-29T23:34:45;14.33;;;9.10;;
4248;SDS011;8404;48.752;12.922;2022-12-29T23:37:13;10.73;;;8.30;;
4248;SDS011;8404;48.752;12.922;2022-12-29T23:39:41;10.37;;;9.00;;
4248;SDS011;8404;48.752;12.922;2022-12-29T23:42:09;11.83;;;8.30;;
4248;SDS011;8404;48.752;12.922;2022-12-29T23:44:37;9.60;;;8.57;;
4248;SDS011;8404;48.752;12.922;2022-12-29T23:47:05;11.00;;;8.73;;
4248;SDS011;8404;48.752;12.922;2022-12-29T23:49:35;9.93;;;8.40;;
4248;SDS011;8404;48.752;12.922;2022-12-29T23:52:03;8.70;;;7.80;;
4248;SDS011;8404;48.752;12.922;2022-12-29T23:54:31;9.30;;;8.30;;
4248;SDS011;8404;48.752;12.922;2022-12-29T23:56:59;10.33;;;8.20;;
4248;SDS011;8404;48.752;12.922;2022-12-29T23:59:27;11.05;;;8.23;;
